Flight Track Log - Related Links

Times and Time Zones

All times are in EDT time to prevent confusion due to time zone crossing. See the CSQ778 flight status page for this flight to view local times or setup timezone preferences in your user account.

Time Position Orientation Groundspeed Altitude Reporting Facility
EDT Latitude Longitude Course Direction KTS MPH feet Rate Location/Type
Thu 05:44:50 PM 27.9167 -82.6833 260° West 146 168 600  Level Tampa TRACON
Thu 05:46:48 PM 27.9042 -82.7642 260° West 195 224 2,700 1,039 Climbing Miami Center
Thu 05:47:49 PM 27.8406 -82.7606 177° South 217 250 3,700 976 Climbing Miami Center
Thu 05:48:51 PM 27.7792 -82.7431 166° South 238 274 4,700 968 Climbing Miami Center
Thu 05:49:53 PM 27.7194 -82.7131 156° South 235 270 5,700 919 Climbing Miami Center
Thu 05:50:55 PM 27.6603 -82.6828 156° South 236 272 6,600 919 Climbing Miami Center
Thu 05:51:57 PM 27.6014 -82.6528 156° South 236 272 7,600 1,065 Climbing Miami Center
Thu 05:52:59 PM 27.5319 -82.6161 155° Southeast 231 266 8,800 1,065 Climbing Miami Center
Thu 05:54:01 PM 27.4742 -82.5844 154° Southeast 232 267 9,800 976 Climbing Miami Center
Thu 05:55:02 PM 27.4214 -82.5444 146° Southeast 232 267 10,800 976 Climbing Miami Center
Thu 05:56:04 PM 27.3722 -82.4989 141° Southeast 232 267 11,800 919 Climbing Miami Center
Thu 05:57:06 PM 27.3200 -82.4547 143° Southeast 232 267 12,700 919 Climbing Miami Center
Thu 05:58:08 PM 27.2694 -82.4108 142° Southeast 232 267 13,700 1,065 Climbing Miami Center
Thu 05:59:10 PM 27.2089 -82.3578 142° Southeast 232 267 14,900 634 Climbing Miami Center
Thu 06:00:11 PM 27.1564 -82.3119 142° Southeast 239 275 15,000 49 Climbing Miami Center
Thu 06:01:13 PM 27.0983 -82.2625 143° Southeast 260 299 15,000  Level Miami Center
Thu 06:02:15 PM 27.0375 -82.2106 143° Southeast 270 311 15,000  Level Miami Center
Thu 06:03:17 PM 26.9689 -82.1511 142° Southeast 281 323 15,000  Level Miami Center
Thu 06:04:18 PM 26.9033 -82.0950 143° Southeast 278 320 15,000  Level Miami Center
Thu 06:05:20 PM 26.8419 -82.0422 143° Southeast 281 323 15,000  Level Miami Center
Thu 06:06:22 PM 26.7819 -81.9908 143° Southeast 279 321 15,000  Level Miami Center
Thu 06:08:25 PM 26.6553 -81.8828 143° Southeast 276 318 15,000  Level Miami Center
Thu 06:09:27 PM 26.5906 -81.8281 143° Southeast 276 318 15,000  Level Miami Center
Thu 06:10:29 PM 26.5372 -81.7833 143° Southeast 273 314 15,000  Level Miami Center
Thu 06:11:30 PM 26.4897 -81.6986 122° Southeast 283 326 15,000  Level Miami Center
Thu 06:12:32 PM 26.4486 -81.6197 120° Southeast 276 318 15,000 -97 Level Miami Center
Thu 06:13:34 PM 26.4103 -81.5456 120° Southeast 277 319 14,800 -390 Descending Miami Center
Thu 06:14:35 PM 26.3667 -81.4628 120° Southeast 286 329 14,200 -488 Descending Miami Center
Thu 06:15:37 PM 26.3264 -81.3850 120° Southeast 291 335 13,800 -484 Descending Miami Center
Thu 06:16:39 PM 26.2822 -81.3006 120° Southeast 293 337 13,200 -1,268 Descending Miami Center
Thu 06:17:40 PM 26.2436 -81.2272 120° Southeast 279 321 11,200 -1,963 Descending Miami Center
Thu 06:18:26 PM 26.2172 -81.1731 118° Southeast 264 304 9,700 -2,032 Descending Miami Center
Thu 06:18:42 PM 26.2047 -81.1525 124° Southeast 262 302 9,100 -2,000 Descending Miami Center
Thu 06:19:44 PM 26.1694 -81.0844 120° Southeast 256 295 7,100 -1,895 Descending Miami Center
Thu 06:19:58 PM 26.1614 -81.0686 120° Southeast 259 298 6,700 -1,082 Descending Miami Center
Thu 06:20:45 PM 26.1333 -81.0147 120° Southeast 260 299 6,000 -677 Descending Miami Center
Thu 06:21:00 PM 26.1222 -80.9978 126° Southeast 232 267 6,000  Level Miami Center
Thu 06:21:47 PM 26.1022 -80.9572 119° Southeast 221 254 6,000  Level Miami Center
Thu 06:22:00 PM 26.0925 -80.9419 125° Southeast 207 238 6,000  Level Miami Center
Thu 06:22:49 PM 26.0786 -80.9022 111° Southeast 202 232 6,000  Level Miami Center
Thu 06:23:02 PM 26.0775 -80.8850 94° East 191 220 6,000  Level Miami Center
Thu 06:23:51 PM 26.0778 -80.8397 90° East 203 234 6,000  Level Miami Center
Thu 06:24:52 PM 26.0789 -80.7636 89° East 243 280 6,000  Level Miami Center
Thu 06:25:04 PM 26.0792 -80.7344 89° East 255 293 6,000  Level Miami Center
Thu 06:26:05 PM 26.0797 -80.6625 89° East 208 239 6,000  Level Miami Center
Thu 06:27:01 PM 26.0792 -80.6069 91° East 194 223 6,000  Level Miami Center
Thu 06:27:57 PM 26.0797 -80.5517 89° East 197 227 6,000 -102 Level Miami Center
Thu 06:28:59 PM 26.0792 -80.4947 91° East 188 216 5,800 -629 Descending Miami Center
Thu 06:30:01 PM 26.0789 -80.4444 90° East 166 191 4,700 -878 Descending Miami Center
Thu 06:31:02 PM 26.0789 -80.3978 90° East 153 176 4,000 -912 Descending Miami Center
Thu 06:32:06 PM 26.0797 -80.3400 89° East 159 183 2,800 -1,008 Descending Miami Center
Thu 06:33:01 PM 26.0864 -80.2989 80° East 138 159 2,000 -595 Descending Miami Center
Thu 06:34:07 PM 26.0814 -80.2597 98° East 141 162 1,600 -563 Descending Miami Center
Thu 06:35:09 PM 26.0781 -80.2144 95° East 143 165 800 -726 Descending Miami Center
Thu 06:36:11 PM 26.0767 -80.1669 92° East 132 152 100 -677 Descending Miami Center
Thu 06:38:00 PM 26.0667 -80.1500 90° East  Level FlightAware Approximate

Login

Don't have an account? Register now (free) for customized features, flight alerts, and more!